KSVN

Hunter AAF Airport

Savannah, Georgia, USA
METAR KSVN 190856Z AUTO 00000KT 10SM CLR 24/22 A2987 RMK AO2 SLP118 T02350219 55005 FZRANO $
Observed Flight Rules
Sep-19 @ 08:56 UTC (51 minutes ago) Visual Flight Rules
Visibility Clouds
10 miles
  • Clear skies
Temperatures Readings
Current 24°C / 75°F
Dewpoint 22°C / 72°F
Humidity 89%
Altimeter 29.87" Hg
Pressure 1011.8 hPa
Elevation 13
METAR KSVN 190856Z AUTO 00000KT 10SM CLR 24/22 A2987 RMK AO2 SLP118 T02350219 55005 FZRANO $
Observed Flight Rules
Sep-19 @ 08:56 UTC
(51 minutes ago)
VFR
Clouds
  • Clear skies
Temperature Dewpoint
24°C / 75°F 22°C / 72°F
Humidity Altimeter Pressure
89% 29.87" Hg 1011.8 hPa